sensor_id;sensor_type;location;lat;lon;timestamp;P1;durP1;ratioP1;P2;durP2;ratioP2
2906;SDS011;1463;51.070;16.998;2023-04-25T00:01:15;3.10;;;1.40;;
2906;SDS011;1463;51.070;16.998;2023-04-25T00:03:43;3.60;;;1.88;;
2906;SDS011;1463;51.070;16.998;2023-04-25T00:06:11;2.30;;;1.70;;
2906;SDS011;1463;51.070;16.998;2023-04-25T00:08:40;2.65;;;1.67;;
2906;SDS011;1463;51.070;16.998;2023-04-25T00:11:08;2.85;;;1.63;;
2906;SDS011;1463;51.070;16.998;2023-04-25T00:13:35;2.22;;;1.30;;
2906;SDS011;1463;51.070;16.998;2023-04-25T00:16:03;9.63;;;1.80;;
2906;SDS011;1463;51.070;16.998;2023-04-25T00:18:31;2.30;;;1.50;;
2906;SDS011;1463;51.070;16.998;2023-04-25T00:21:00;2.20;;;1.40;;
2906;SDS011;1463;51.070;16.998;2023-04-25T00:23:27;2.60;;;1.60;;
2906;SDS011;1463;51.070;16.998;2023-04-25T00:25:57;4.65;;;1.80;;
2906;SDS011;1463;51.070;16.998;2023-04-25T00:28:24;2.50;;;1.85;;
2906;SDS011;1463;51.070;16.998;2023-04-25T00:30:51;2.97;;;1.80;;
2906;SDS011;1463;51.070;16.998;2023-04-25T00:33:19;2.92;;;1.75;;
2906;SDS011;1463;51.070;16.998;2023-04-25T00:35:46;3.28;;;1.83;;
2906;SDS011;1463;51.070;16.998;2023-04-25T00:38:14;2.85;;;1.83;;
2906;SDS011;1463;51.070;16.998;2023-04-25T00:40:41;2.65;;;2.00;;
2906;SDS011;1463;51.070;16.998;2023-04-25T00:43:11;4.60;;;1.88;;
2906;SDS011;1463;51.070;16.998;2023-04-25T00:45:39;4.40;;;1.65;;
2906;SDS011;1463;51.070;16.998;2023-04-25T00:48:06;2.88;;;1.40;;
2906;SDS011;1463;51.070;16.998;2023-04-25T00:50:34;2.45;;;1.63;;
2906;SDS011;1463;51.070;16.998;2023-04-25T00:53:02;4.47;;;1.75;;
2906;SDS011;1463;51.070;16.998;2023-04-25T00:55:30;3.15;;;1.50;;
2906;SDS011;1463;51.070;16.998;2023-04-25T00:57:59;2.05;;;1.40;;
2906;SDS011;1463;51.070;16.998;2023-04-25T01:00:28;4.45;;;2.00;;
2906;SDS011;1463;51.070;16.998;2023-04-25T01:02:56;3.20;;;2.13;;
2906;SDS011;1463;51.070;16.998;2023-04-25T01:05:25;2.22;;;1.52;;
2906;SDS011;1463;51.070;16.998;2023-04-25T01:07:53;2.50;;;1.70;;
2906;SDS011;1463;51.070;16.998;2023-04-25T01:10:20;2.75;;;2.10;;
2906;SDS011;1463;51.070;16.998;2023-04-25T01:12:48;8.25;;;2.05;;
2906;SDS011;1463;51.070;16.998;2023-04-25T01:15:15;3.75;;;1.77;;
2906;SDS011;1463;51.070;16.998;2023-04-25T01:17:44;3.42;;;2.10;;
2906;SDS011;1463;51.070;16.998;2023-04-25T01:20:12;4.05;;;2.15;;
2906;SDS011;1463;51.070;16.998;2023-04-25T01:22:43;4.18;;;2.30;;
2906;SDS011;1463;51.070;16.998;2023-04-25T01:25:10;3.83;;;2.00;;
2906;SDS011;1463;51.070;16.998;2023-04-25T01:27:38;3.65;;;2.20;;
2906;SDS011;1463;51.070;16.998;2023-04-25T01:30:07;15.02;;;5.47;;
2906;SDS011;1463;51.070;16.998;2023-04-25T01:32:35;27.23;;;13.18;;
2906;SDS011;1463;51.070;16.998;2023-04-25T01:35:04;10.07;;;6.03;;
2906;SDS011;1463;51.070;16.998;2023-04-25T01:37:35;6.13;;;3.40;;
2906;SDS011;1463;51.070;16.998;2023-04-25T01:40:05;5.95;;;3.75;;
2906;SDS011;1463;51.070;16.998;2023-04-25T01:42:33;9.55;;;2.72;;
2906;SDS011;1463;51.070;16.998;2023-04-25T01:45:02;3.72;;;2.47;;
2906;SDS011;1463;51.070;16.998;2023-04-25T01:47:30;4.10;;;2.40;;
2906;SDS011;1463;51.070;16.998;2023-04-25T01:49:57;5.50;;;2.72;;
2906;SDS011;1463;51.070;16.998;2023-04-25T01:52:25;8.20;;;5.57;;
2906;SDS011;1463;51.070;16.998;2023-04-25T01:54:52;3.75;;;2.30;;
2906;SDS011;1463;51.070;16.998;2023-04-25T01:57:22;3.70;;;2.50;;
2906;SDS011;1463;51.070;16.998;2023-04-25T01:59:49;4.75;;;2.45;;
2906;SDS011;1463;51.070;16.998;2023-04-25T02:02:18;4.28;;;2.22;;
2906;SDS011;1463;51.070;16.998;2023-04-25T02:04:46;4.43;;;2.40;;
2906;SDS011;1463;51.070;16.998;2023-04-25T02:07:13;5.07;;;2.40;;
2906;SDS011;1463;51.070;16.998;2023-04-25T02:09:41;3.42;;;2.13;;
2906;SDS011;1463;51.070;16.998;2023-04-25T02:12:09;2.80;;;1.92;;
2906;SDS011;1463;51.070;16.998;2023-04-25T02:14:38;3.60;;;2.33;;
2906;SDS011;1463;51.070;16.998;2023-04-25T02:17:06;4.93;;;2.85;;
2906;SDS011;1463;51.070;16.998;2023-04-25T02:19:33;4.10;;;2.92;;
2906;SDS011;1463;51.070;16.998;2023-04-25T02:22:00;3.60;;;2.20;;
2906;SDS011;1463;51.070;16.998;2023-04-25T02:24:28;3.30;;;2.67;;
2906;SDS011;1463;51.070;16.998;2023-04-25T02:26:57;4.38;;;2.70;;
2906;SDS011;1463;51.070;16.998;2023-04-25T02:29:24;4.13;;;2.70;;
2906;SDS011;1463;51.070;16.998;2023-04-25T02:31:53;6.75;;;3.08;;
2906;SDS011;1463;51.070;16.998;2023-04-25T02:34:21;5.95;;;2.45;;
2906;SDS011;1463;51.070;16.998;2023-04-25T02:36:48;4.00;;;2.50;;
2906;SDS011;1463;51.070;16.998;2023-04-25T02:39:16;4.25;;;3.20;;
2906;SDS011;1463;51.070;16.998;2023-04-25T02:41:43;4.60;;;3.28;;
2906;SDS011;1463;51.070;16.998;2023-04-25T02:44:10;3.22;;;2.40;;
2906;SDS011;1463;51.070;16.998;2023-04-25T02:46:38;7.75;;;3.45;;
2906;SDS011;1463;51.070;16.998;2023-04-25T02:49:07;6.45;;;3.45;;
2906;SDS011;1463;51.070;16.998;2023-04-25T02:51:34;5.57;;;3.22;;
2906;SDS011;1463;51.070;16.998;2023-04-25T02:54:02;4.22;;;3.00;;
2906;SDS011;1463;51.070;16.998;2023-04-25T02:56:30;5.32;;;3.55;;
2906;SDS011;1463;51.070;16.998;2023-04-25T02:58:57;4.30;;;2.33;;
2906;SDS011;1463;51.070;16.998;2023-04-25T03:01:24;4.65;;;2.75;;
2906;SDS011;1463;51.070;16.998;2023-04-25T03:03:52;5.25;;;3.35;;
2906;SDS011;1463;51.070;16.998;2023-04-25T03:06:21;3.83;;;2.50;;
2906;SDS011;1463;51.070;16.998;2023-04-25T03:08:48;4.35;;;2.15;;
2906;SDS011;1463;51.070;16.998;2023-04-25T03:11:15;5.32;;;3.10;;
2906;SDS011;1463;51.070;16.998;2023-04-25T03:13:45;4.80;;;2.85;;
2906;SDS011;1463;51.070;16.998;2023-04-25T03:16:12;4.25;;;2.90;;
2906;SDS011;1463;51.070;16.998;2023-04-25T03:18:40;4.63;;;2.95;;
2906;SDS011;1463;51.070;16.998;2023-04-25T03:21:08;3.88;;;2.90;;
2906;SDS011;1463;51.070;16.998;2023-04-25T03:23:36;7.32;;;3.28;;
2906;SDS011;1463;51.070;16.998;2023-04-25T03:26:04;5.63;;;3.17;;
2906;SDS011;1463;51.070;16.998;2023-04-25T03:28:31;5.13;;;2.70;;
2906;SDS011;1463;51.070;16.998;2023-04-25T03:30:59;5.35;;;3.25;;
2906;SDS011;1463;51.070;16.998;2023-04-25T03:33:26;4.88;;;3.45;;
2906;SDS011;1463;51.070;16.998;2023-04-25T03:35:53;5.63;;;2.83;;
2906;SDS011;1463;51.070;16.998;2023-04-25T03:38:21;4.32;;;2.85;;
2906;SDS011;1463;51.070;16.998;2023-04-25T03:40:50;3.90;;;2.65;;
2906;SDS011;1463;51.070;16.998;2023-04-25T03:43:18;5.93;;;3.30;;
2906;SDS011;1463;51.070;16.998;2023-04-25T03:45:45;3.83;;;2.60;;
2906;SDS011;1463;51.070;16.998;2023-04-25T03:48:12;4.00;;;2.90;;
2906;SDS011;1463;51.070;16.998;2023-04-25T03:50:40;4.80;;;3.38;;
2906;SDS011;1463;51.070;16.998;2023-04-25T03:53:07;4.20;;;3.13;;
2906;SDS011;1463;51.070;16.998;2023-04-25T03:55:35;6.28;;;3.72;;
2906;SDS011;1463;51.070;16.998;2023-04-25T03:58:04;6.78;;;4.30;;
2906;SDS011;1463;51.070;16.998;2023-04-25T04:00:31;3.67;;;2.58;;
2906;SDS011;1463;51.070;16.998;2023-04-25T04:02:58;4.55;;;3.58;;
2906;SDS011;1463;51.070;16.998;2023-04-25T04:05:26;4.40;;;3.05;;
2906;SDS011;1463;51.070;16.998;2023-04-25T04:07:54;6.05;;;3.75;;
2906;SDS011;1463;51.070;16.998;2023-04-25T04:10:21;3.58;;;2.70;;
2906;SDS011;1463;51.070;16.998;2023-04-25T04:12:49;5.53;;;3.00;;
2906;SDS011;1463;51.070;16.998;2023-04-25T04:15:17;5.70;;;3.90;;
2906;SDS011;1463;51.070;16.998;2023-04-25T04:17:45;5.72;;;3.40;;
2906;SDS011;1463;51.070;16.998;2023-04-25T04:20:13;5.07;;;3.70;;
2906;SDS011;1463;51.070;16.998;2023-04-25T04:22:40;6.88;;;3.80;;
2906;SDS011;1463;51.070;16.998;2023-04-25T04:25:08;7.85;;;3.83;;
2906;SDS011;1463;51.070;16.998;2023-04-25T04:27:37;6.53;;;4.18;;
2906;SDS011;1463;51.070;16.998;2023-04-25T04:30:06;4.97;;;3.75;;
2906;SDS011;1463;51.070;16.998;2023-04-25T04:32:36;5.47;;;3.70;;
2906;SDS011;1463;51.070;16.998;2023-04-25T04:35:03;6.13;;;3.78;;
2906;SDS011;1463;51.070;16.998;2023-04-25T04:37:32;5.07;;;3.88;;
2906;SDS011;1463;51.070;16.998;2023-04-25T04:40:00;5.82;;;3.47;;
2906;SDS011;1463;51.070;16.998;2023-04-25T04:42:31;6.05;;;3.83;;
2906;SDS011;1463;51.070;16.998;2023-04-25T04:44:58;12.57;;;7.40;;
2906;SDS011;1463;51.070;16.998;2023-04-25T04:47:26;7.40;;;3.58;;
2906;SDS011;1463;51.070;16.998;2023-04-25T04:49:59;7.05;;;4.03;;
2906;SDS011;1463;51.070;16.998;2023-04-25T04:52:26;7.40;;;4.40;;
2906;SDS011;1463;51.070;16.998;2023-04-25T04:54:53;7.07;;;4.20;;
2906;SDS011;1463;51.070;16.998;2023-04-25T04:57:21;7.85;;;3.90;;
2906;SDS011;1463;51.070;16.998;2023-04-25T04:59:48;7.20;;;3.65;;
2906;SDS011;1463;51.070;16.998;2023-04-25T05:02:16;8.73;;;4.40;;
2906;SDS011;1463;51.070;16.998;2023-04-25T05:04:43;5.32;;;3.60;;
2906;SDS011;1463;51.070;16.998;2023-04-25T05:07:12;6.88;;;4.32;;
2906;SDS011;1463;51.070;16.998;2023-04-25T05:09:40;6.70;;;3.50;;
2906;SDS011;1463;51.070;16.998;2023-04-25T05:12:08;5.78;;;3.65;;
2906;SDS011;1463;51.070;16.998;2023-04-25T05:14:38;4.60;;;3.38;;
2906;SDS011;1463;51.070;16.998;2023-04-25T05:17:05;5.15;;;3.65;;
2906;SDS011;1463;51.070;16.998;2023-04-25T05:19:33;4.50;;;3.08;;
2906;SDS011;1463;51.070;16.998;2023-04-25T05:22:01;5.70;;;3.00;;
2906;SDS011;1463;51.070;16.998;2023-04-25T05:24:30;6.35;;;3.97;;
2906;SDS011;1463;51.070;16.998;2023-04-25T05:26:58;8.63;;;4.05;;
2906;SDS011;1463;51.070;16.998;2023-04-25T05:29:25;4.40;;;3.30;;
2906;SDS011;1463;51.070;16.998;2023-04-25T05:31:52;3.97;;;3.25;;
2906;SDS011;1463;51.070;16.998;2023-04-25T05:34:20;5.88;;;3.65;;
2906;SDS011;1463;51.070;16.998;2023-04-25T05:36:47;6.40;;;3.92;;
2906;SDS011;1463;51.070;16.998;2023-04-25T05:39:15;5.82;;;3.53;;
2906;SDS011;1463;51.070;16.998;2023-04-25T05:41:44;8.07;;;3.22;;
2906;SDS011;1463;51.070;16.998;2023-04-25T05:44:12;4.65;;;3.33;;
2906;SDS011;1463;51.070;16.998;2023-04-25T05:46:41;4.18;;;2.70;;
2906;SDS011;1463;51.070;16.998;2023-04-25T05:49:08;5.78;;;3.67;;
2906;SDS011;1463;51.070;16.998;2023-04-25T05:51:35;6.03;;;3.10;;
2906;SDS011;1463;51.070;16.998;2023-04-25T05:54:03;5.03;;;2.95;;
2906;SDS011;1463;51.070;16.998;2023-04-25T05:56:30;5.00;;;3.03;;
2906;SDS011;1463;51.070;16.998;2023-04-25T05:58:59;5.65;;;3.33;;
2906;SDS011;1463;51.070;16.998;2023-04-25T06:01:27;4.90;;;3.22;;
2906;SDS011;1463;51.070;16.998;2023-04-25T06:03:54;4.65;;;3.03;;
2906;SDS011;1463;51.070;16.998;2023-04-25T06:06:21;5.60;;;3.63;;
2906;SDS011;1463;51.070;16.998;2023-04-25T06:08:49;4.82;;;3.40;;
2906;SDS011;1463;51.070;16.998;2023-04-25T06:11:16;6.40;;;4.10;;
2906;SDS011;1463;51.070;16.998;2023-04-25T06:13:44;10.00;;;3.45;;
2906;SDS011;1463;51.070;16.998;2023-04-25T06:16:13;8.93;;;3.85;;
2906;SDS011;1463;51.070;16.998;2023-04-25T06:18:41;6.88;;;3.30;;
2906;SDS011;1463;51.070;16.998;2023-04-25T06:21:08;5.25;;;2.92;;
2906;SDS011;1463;51.070;16.998;2023-04-25T06:23:36;5.30;;;3.30;;
2906;SDS011;1463;51.070;16.998;2023-04-25T06:26:03;5.65;;;2.80;;
2906;SDS011;1463;51.070;16.998;2023-04-25T06:28:31;4.10;;;3.25;;
2906;SDS011;1463;51.070;16.998;2023-04-25T06:30:59;15.25;;;4.85;;
2906;SDS011;1463;51.070;16.998;2023-04-25T06:33:28;5.22;;;4.05;;
2906;SDS011;1463;51.070;16.998;2023-04-25T06:35:55;4.20;;;2.60;;
2906;SDS011;1463;51.070;16.998;2023-04-25T06:38:22;4.88;;;3.08;;
2906;SDS011;1463;51.070;16.998;2023-04-25T06:40:50;5.72;;;3.30;;
2906;SDS011;1463;51.070;16.998;2023-04-25T06:43:17;3.72;;;2.80;;
2906;SDS011;1463;51.070;16.998;2023-04-25T06:45:45;5.07;;;3.53;;
2906;SDS011;1463;51.070;16.998;2023-04-25T06:48:12;5.70;;;3.85;;
2906;SDS011;1463;51.070;16.998;2023-04-25T06:50:42;6.00;;;2.60;;
2906;SDS011;1463;51.070;16.998;2023-04-25T06:53:09;6.93;;;3.00;;
2906;SDS011;1463;51.070;16.998;2023-04-25T06:55:37;6.45;;;2.70;;
2906;SDS011;1463;51.070;16.998;2023-04-25T06:58:05;6.97;;;3.75;;
2906;SDS011;1463;51.070;16.998;2023-04-25T07:00:33;5.15;;;2.92;;
2906;SDS011;1463;51.070;16.998;2023-04-25T07:03:01;4.30;;;3.17;;
2906;SDS011;1463;51.070;16.998;2023-04-25T07:05:28;4.90;;;3.15;;
2906;SDS011;1463;51.070;16.998;2023-04-25T07:07:57;4.45;;;3.00;;
2906;SDS011;1463;51.070;16.998;2023-04-25T07:10:25;3.33;;;2.05;;
2906;SDS011;1463;51.070;16.998;2023-04-25T07:12:52;6.25;;;3.60;;
2906;SDS011;1463;51.070;16.998;2023-04-25T07:15:20;7.53;;;2.85;;
2906;SDS011;1463;51.070;16.998;2023-04-25T07:17:47;5.00;;;2.88;;
2906;SDS011;1463;51.070;16.998;2023-04-25T07:20:15;4.65;;;2.33;;
2906;SDS011;1463;51.070;16.998;2023-04-25T07:22:42;5.03;;;2.40;;
2906;SDS011;1463;51.070;16.998;2023-04-25T07:25:11;5.68;;;2.80;;
2906;SDS011;1463;51.070;16.998;2023-04-25T07:27:39;3.10;;;2.10;;
2906;SDS011;1463;51.070;16.998;2023-04-25T07:30:07;5.25;;;2.38;;
2906;SDS011;1463;51.070;16.998;2023-04-25T07:32:35;7.32;;;2.10;;
2906;SDS011;1463;51.070;16.998;2023-04-25T07:35:03;3.35;;;2.60;;
2906;SDS011;1463;51.070;16.998;2023-04-25T07:37:32;3.45;;;2.10;;
2906;SDS011;1463;51.070;16.998;2023-04-25T07:39:59;3.90;;;2.85;;
2906;SDS011;1463;51.070;16.998;2023-04-25T07:42:30;5.47;;;2.97;;
2906;SDS011;1463;51.070;16.998;2023-04-25T07:44:58;4.97;;;2.45;;
2906;SDS011;1463;51.070;16.998;2023-04-25T07:47:25;6.57;;;3.30;;
2906;SDS011;1463;51.070;16.998;2023-04-25T07:49:53;4.10;;;2.63;;
2906;SDS011;1463;51.070;16.998;2023-04-25T07:52:21;7.80;;;3.33;;
2906;SDS011;1463;51.070;16.998;2023-04-25T07:54:48;3.75;;;2.40;;
2906;SDS011;1463;51.070;16.998;2023-04-25T07:57:16;5.60;;;2.95;;
2906;SDS011;1463;51.070;16.998;2023-04-25T07:59:46;6.88;;;3.08;;
2906;SDS011;1463;51.070;16.998;2023-04-25T08:02:13;4.55;;;2.78;;
2906;SDS011;1463;51.070;16.998;2023-04-25T08:04:40;6.15;;;3.05;;
2906;SDS011;1463;51.070;16.998;2023-04-25T08:07:08;6.80;;;3.00;;
2906;SDS011;1463;51.070;16.998;2023-04-25T08:09:36;6.88;;;3.60;;
2906;SDS011;1463;51.070;16.998;2023-04-25T08:12:03;6.22;;;3.60;;
2906;SDS011;1463;51.070;16.998;2023-04-25T08:14:31;6.65;;;3.92;;
2906;SDS011;1463;51.070;16.998;2023-04-25T08:17:02;6.63;;;3.90;;
2906;SDS011;1463;51.070;16.998;2023-04-25T08:19:30;7.32;;;4.32;;
2906;SDS011;1463;51.070;16.998;2023-04-25T08:21:57;6.05;;;4.93;;
2906;SDS011;1463;51.070;16.998;2023-04-25T08:24:25;6.35;;;4.32;;
2906;SDS011;1463;51.070;16.998;2023-04-25T08:26:52;7.95;;;5.47;;
2906;SDS011;1463;51.070;16.998;2023-04-25T08:29:19;8.30;;;4.35;;
2906;SDS011;1463;51.070;16.998;2023-04-25T08:31:49;8.35;;;4.72;;
2906;SDS011;1463;51.070;16.998;2023-04-25T08:34:19;6.00;;;4.30;;
2906;SDS011;1463;51.070;16.998;2023-04-25T08:36:46;7.40;;;4.20;;
2906;SDS011;1463;51.070;16.998;2023-04-25T08:39:14;7.65;;;3.95;;
2906;SDS011;1463;51.070;16.998;2023-04-25T08:41:41;6.88;;;4.13;;
2906;SDS011;1463;51.070;16.998;2023-04-25T08:44:09;7.40;;;4.90;;
2906;SDS011;1463;51.070;16.998;2023-04-25T08:46:38;9.30;;;4.88;;
2906;SDS011;1463;51.070;16.998;2023-04-25T08:49:06;7.05;;;4.43;;
2906;SDS011;1463;51.070;16.998;2023-04-25T08:51:40;8.88;;;5.60;;
2906;SDS011;1463;51.070;16.998;2023-04-25T08:54:13;8.60;;;4.60;;
2906;SDS011;1463;51.070;16.998;2023-04-25T08:56:43;8.20;;;5.85;;
2906;SDS011;1463;51.070;16.998;2023-04-25T08:59:12;7.50;;;4.22;;
2906;SDS011;1463;51.070;16.998;2023-04-25T09:01:39;4.90;;;3.33;;
2906;SDS011;1463;51.070;16.998;2023-04-25T09:04:07;6.13;;;4.15;;
2906;SDS011;1463;51.070;16.998;2023-04-25T09:06:34;8.70;;;3.70;;
2906;SDS011;1463;51.070;16.998;2023-04-25T09:09:04;6.97;;;4.25;;
2906;SDS011;1463;51.070;16.998;2023-04-25T09:11:32;5.95;;;4.20;;
2906;SDS011;1463;51.070;16.998;2023-04-25T09:14:10;4.78;;;3.90;;
2906;SDS011;1463;51.070;16.998;2023-04-25T09:16:57;7.15;;;3.70;;
2906;SDS011;1463;51.070;16.998;2023-04-25T09:19:30;4.85;;;3.40;;
2906;SDS011;1463;51.070;16.998;2023-04-25T09:22:00;5.60;;;3.60;;
2906;SDS011;1463;51.070;16.998;2023-04-25T09:24:32;5.15;;;3.70;;
2906;SDS011;1463;51.070;16.998;2023-04-25T09:27:02;6.13;;;4.65;;
2906;SDS011;1463;51.070;16.998;2023-04-25T09:29:31;6.80;;;4.28;;
2906;SDS011;1463;51.070;16.998;2023-04-25T09:32:14;4.22;;;3.35;;
2906;SDS011;1463;51.070;16.998;2023-04-25T09:34:45;7.35;;;3.20;;
2906;SDS011;1463;51.070;16.998;2023-04-25T09:37:20;7.05;;;3.65;;
2906;SDS011;1463;51.070;16.998;2023-04-25T09:39:49;5.75;;;3.20;;
2906;SDS011;1463;51.070;16.998;2023-04-25T09:42:17;4.05;;;3.10;;
2906;SDS011;1463;51.070;16.998;2023-04-25T09:44:45;4.32;;;3.35;;
2906;SDS011;1463;51.070;16.998;2023-04-25T09:47:13;5.13;;;3.45;;
2906;SDS011;1463;51.070;16.998;2023-04-25T09:49:43;5.57;;;3.50;;
2906;SDS011;1463;51.070;16.998;2023-04-25T09:52:13;5.32;;;3.70;;
2906;SDS011;1463;51.070;16.998;2023-04-25T09:54:43;7.15;;;3.97;;
2906;SDS011;1463;51.070;16.998;2023-04-25T09:57:11;6.95;;;3.95;;
2906;SDS011;1463;51.070;16.998;2023-04-25T09:59:43;7.38;;;3.47;;
2906;SDS011;1463;51.070;16.998;2023-04-25T10:02:11;9.23;;;4.30;;
2906;SDS011;1463;51.070;16.998;2023-04-25T10:04:39;8.43;;;4.68;;
2906;SDS011;1463;51.070;16.998;2023-04-25T10:07:08;9.88;;;4.10;;
2906;SDS011;1463;51.070;16.998;2023-04-25T10:09:36;5.85;;;4.25;;
2906;SDS011;1463;51.070;16.998;2023-04-25T10:12:06;6.30;;;4.30;;
2906;SDS011;1463;51.070;16.998;2023-04-25T10:14:34;4.57;;;3.55;;
2906;SDS011;1463;51.070;16.998;2023-04-25T10:17:02;5.70;;;4.13;;
2906;SDS011;1463;51.070;16.998;2023-04-25T10:19:30;7.35;;;3.75;;
2906;SDS011;1463;51.070;16.998;2023-04-25T10:22:05;4.35;;;3.55;;
2906;SDS011;1463;51.070;16.998;2023-04-25T10:24:35;10.15;;;4.40;;
2906;SDS011;1463;51.070;16.998;2023-04-25T10:27:03;6.53;;;4.43;;
2906;SDS011;1463;51.070;16.998;2023-04-25T10:29:33;5.47;;;4.07;;
2906;SDS011;1463;51.070;16.998;2023-04-25T10:32:02;7.32;;;3.80;;
2906;SDS011;1463;51.070;16.998;2023-04-25T10:34:39;6.65;;;4.32;;
2906;SDS011;1463;51.070;16.998;2023-04-25T10:37:10;6.20;;;3.80;;
2906;SDS011;1463;51.070;16.998;2023-04-25T10:39:39;6.82;;;3.30;;
2906;SDS011;1463;51.070;16.998;2023-04-25T10:42:09;6.95;;;3.35;;
2906;SDS011;1463;51.070;16.998;2023-04-25T10:44:37;6.88;;;3.08;;
2906;SDS011;1463;51.070;16.998;2023-04-25T10:47:06;6.28;;;3.22;;
2906;SDS011;1463;51.070;16.998;2023-04-25T10:49:35;5.55;;;3.20;;
2906;SDS011;1463;51.070;16.998;2023-04-25T10:52:11;4.28;;;3.10;;
2906;SDS011;1463;51.070;16.998;2023-04-25T10:54:42;5.15;;;3.10;;
2906;SDS011;1463;51.070;16.998;2023-04-25T10:57:30;3.63;;;2.85;;
2906;SDS011;1463;51.070;16.998;2023-04-25T11:00:06;4.20;;;2.97;;
2906;SDS011;1463;51.070;16.998;2023-04-25T11:02:42;5.55;;;2.80;;
2906;SDS011;1463;51.070;16.998;2023-04-25T11:05:22;5.20;;;3.20;;
2906;SDS011;1463;51.070;16.998;2023-04-25T11:07:54;6.30;;;2.88;;
2906;SDS011;1463;51.070;16.998;2023-04-25T11:10:24;2.95;;;2.22;;
2906;SDS011;1463;51.070;16.998;2023-04-25T11:12:54;3.30;;;2.05;;
2906;SDS011;1463;51.070;16.998;2023-04-25T11:15:22;4.38;;;2.28;;
2906;SDS011;1463;51.070;16.998;2023-04-25T11:17:50;6.07;;;2.80;;
2906;SDS011;1463;51.070;16.998;2023-04-25T11:20:18;3.15;;;1.98;;
2906;SDS011;1463;51.070;16.998;2023-04-25T11:22:46;4.70;;;2.40;;
2906;SDS011;1463;51.070;16.998;2023-04-25T11:25:15;3.28;;;1.77;;
2906;SDS011;1463;51.070;16.998;2023-04-25T11:27:49;3.63;;;1.88;;
2906;SDS011;1463;51.070;16.998;2023-04-25T11:30:19;3.40;;;1.90;;
2906;SDS011;1463;51.070;16.998;2023-04-25T11:32:48;9.57;;;2.10;;
2906;SDS011;1463;51.070;16.998;2023-04-25T11:35:17;2.97;;;2.33;;
2906;SDS011;1463;51.070;16.998;2023-04-25T11:37:45;3.47;;;2.00;;
2906;SDS011;1463;51.070;16.998;2023-04-25T11:40:13;3.58;;;1.70;;
2906;SDS011;1463;51.070;16.998;2023-04-25T11:42:43;7.78;;;1.63;;
2906;SDS011;1463;51.070;16.998;2023-04-25T11:45:11;4.68;;;2.00;;
2906;SDS011;1463;51.070;16.998;2023-04-25T11:47:41;2.42;;;1.63;;
2906;SDS011;1463;51.070;16.998;2023-04-25T11:50:09;2.90;;;1.63;;
2906;SDS011;1463;51.070;16.998;2023-04-25T11:52:37;4.07;;;2.00;;
2906;SDS011;1463;51.070;16.998;2023-04-25T11:55:06;2.95;;;1.67;;
2906;SDS011;1463;51.070;16.998;2023-04-25T11:57:37;6.47;;;2.10;;
2906;SDS011;1463;51.070;16.998;2023-04-25T12:00:06;2.67;;;1.85;;
2906;SDS011;1463;51.070;16.998;2023-04-25T12:02:36;4.47;;;1.92;;
2906;SDS011;1463;51.070;16.998;2023-04-25T12:05:07;9.25;;;2.50;;
2906;SDS011;1463;51.070;16.998;2023-04-25T12:07:35;3.42;;;1.60;;
2906;SDS011;1463;51.070;16.998;2023-04-25T12:10:04;2.95;;;1.60;;
2906;SDS011;1463;51.070;16.998;2023-04-25T12:12:33;2.95;;;1.80;;
2906;SDS011;1463;51.070;16.998;2023-04-25T12:15:10;4.00;;;1.85;;
2906;SDS011;1463;51.070;16.998;2023-04-25T12:17:41;3.55;;;1.85;;
2906;SDS011;1463;51.070;16.998;2023-04-25T12:20:12;3.47;;;2.10;;
2906;SDS011;1463;51.070;16.998;2023-04-25T12:22:41;2.38;;;1.55;;
2906;SDS011;1463;51.070;16.998;2023-04-25T12:25:11;3.10;;;1.88;;
2906;SDS011;1463;51.070;16.998;2023-04-25T12:27:39;2.95;;;1.60;;
2906;SDS011;1463;51.070;16.998;2023-04-25T12:30:09;4.60;;;2.42;;
2906;SDS011;1463;51.070;16.998;2023-04-25T12:32:37;3.55;;;1.40;;
2906;SDS011;1463;51.070;16.998;2023-04-25T12:35:05;2.75;;;2.05;;
2906;SDS011;1463;51.070;16.998;2023-04-25T12:37:34;3.17;;;1.63;;
2906;SDS011;1463;51.070;16.998;2023-04-25T12:40:02;3.15;;;1.67;;
2906;SDS011;1463;51.070;16.998;2023-04-25T12:42:31;3.78;;;2.05;;
2906;SDS011;1463;51.070;16.998;2023-04-25T12:44:59;2.60;;;1.67;;
2906;SDS011;1463;51.070;16.998;2023-04-25T12:47:26;8.05;;;2.20;;
2906;SDS011;1463;51.070;16.998;2023-04-25T12:49:54;3.63;;;1.95;;
2906;SDS011;1463;51.070;16.998;2023-04-25T12:52:21;2.95;;;1.75;;
2906;SDS011;1463;51.070;16.998;2023-04-25T12:54:50;2.95;;;1.60;;
2906;SDS011;1463;51.070;16.998;2023-04-25T12:57:19;2.75;;;1.63;;
2906;SDS011;1463;51.070;16.998;2023-04-25T12:59:46;10.25;;;2.33;;
2906;SDS011;1463;51.070;16.998;2023-04-25T13:02:13;3.40;;;1.88;;
2906;SDS011;1463;51.070;16.998;2023-04-25T13:04:41;6.97;;;2.20;;
2906;SDS011;1463;51.070;16.998;2023-04-25T13:07:09;3.97;;;1.92;;
2906;SDS011;1463;51.070;16.998;2023-04-25T13:09:36;5.40;;;2.05;;
2906;SDS011;1463;51.070;16.998;2023-04-25T13:12:05;2.70;;;1.83;;
2906;SDS011;1463;51.070;16.998;2023-04-25T13:14:33;6.15;;;2.42;;
2906;SDS011;1463;51.070;16.998;2023-04-25T13:17:00;2.67;;;1.50;;
2906;SDS011;1463;51.070;16.998;2023-04-25T13:19:28;5.10;;;1.50;;
2906;SDS011;1463;51.070;16.998;2023-04-25T13:21:56;2.80;;;1.60;;
2906;SDS011;1463;51.070;16.998;2023-04-25T13:24:23;2.60;;;1.77;;
2906;SDS011;1463;51.070;16.998;2023-04-25T13:26:51;2.60;;;1.60;;
2906;SDS011;1463;51.070;16.998;2023-04-25T13:29:20;3.00;;;1.75;;
2906;SDS011;1463;51.070;16.998;2023-04-25T13:31:47;2.22;;;1.40;;
2906;SDS011;1463;51.070;16.998;2023-04-25T13:34:15;2.70;;;1.75;;
2906;SDS011;1463;51.070;16.998;2023-04-25T13:36:42;3.25;;;1.73;;
2906;SDS011;1463;51.070;16.998;2023-04-25T13:39:10;3.13;;;1.90;;
2906;SDS011;1463;51.070;16.998;2023-04-25T13:41:38;2.20;;;1.60;;
2906;SDS011;1463;51.070;16.998;2023-04-25T13:44:06;3.28;;;1.83;;
2906;SDS011;1463;51.070;16.998;2023-04-25T13:46:34;3.65;;;2.13;;
2906;SDS011;1463;51.070;16.998;2023-04-25T13:49:03;3.42;;;1.50;;
2906;SDS011;1463;51.070;16.998;2023-04-25T13:51:31;2.75;;;1.80;;
2906;SDS011;1463;51.070;16.998;2023-04-25T13:53:58;6.75;;;1.92;;
2906;SDS011;1463;51.070;16.998;2023-04-25T13:56:26;4.57;;;3.20;;
2906;SDS011;1463;51.070;16.998;2023-04-25T13:58:53;2.92;;;2.00;;
2906;SDS011;1463;51.070;16.998;2023-04-25T14:01:22;3.40;;;2.00;;
2906;SDS011;1463;51.070;16.998;2023-04-25T14:03:50;3.80;;;1.90;;
2906;SDS011;1463;51.070;16.998;2023-04-25T14:06:18;4.22;;;2.13;;
2906;SDS011;1463;51.070;16.998;2023-04-25T14:08:48;2.90;;;2.20;;
2906;SDS011;1463;51.070;16.998;2023-04-25T14:11:16;3.60;;;1.90;;
2906;SDS011;1463;51.070;16.998;2023-04-25T14:13:44;3.28;;;2.00;;
2906;SDS011;1463;51.070;16.998;2023-04-25T14:16:12;2.75;;;1.70;;
2906;SDS011;1463;51.070;16.998;2023-04-25T14:18:40;3.78;;;1.90;;
2906;SDS011;1463;51.070;16.998;2023-04-25T14:21:09;2.65;;;1.60;;
2906;SDS011;1463;51.070;16.998;2023-04-25T14:23:36;3.40;;;1.77;;
2906;SDS011;1463;51.070;16.998;2023-04-25T14:26:03;2.92;;;2.20;;
2906;SDS011;1463;51.070;16.998;2023-04-25T14:28:31;2.67;;;1.65;;
2906;SDS011;1463;51.070;16.998;2023-04-25T14:30:59;2.72;;;1.85;;
2906;SDS011;1463;51.070;16.998;2023-04-25T14:33:26;3.50;;;1.95;;
2906;SDS011;1463;51.070;16.998;2023-04-25T14:35:54;3.97;;;2.08;;
2906;SDS011;1463;51.070;16.998;2023-04-25T14:38:23;2.90;;;1.58;;
2906;SDS011;1463;51.070;16.998;2023-04-25T14:40:50;3.70;;;1.73;;
2906;SDS011;1463;51.070;16.998;2023-04-25T14:43:19;4.60;;;1.90;;
2906;SDS011;1463;51.070;16.998;2023-04-25T14:45:46;3.38;;;1.83;;
2906;SDS011;1463;51.070;16.998;2023-04-25T14:48:13;2.58;;;1.88;;
2906;SDS011;1463;51.070;16.998;2023-04-25T14:50:43;3.85;;;1.90;;
2906;SDS011;1463;51.070;16.998;2023-04-25T14:53:10;3.40;;;1.95;;
2906;SDS011;1463;51.070;16.998;2023-04-25T14:55:40;6.97;;;4.43;;
2906;SDS011;1463;51.070;16.998;2023-04-25T14:58:07;3.47;;;2.25;;
2906;SDS011;1463;51.070;16.998;2023-04-25T15:00:35;3.38;;;1.80;;
2906;SDS011;1463;51.070;16.998;2023-04-25T15:03:03;2.58;;;1.60;;
2906;SDS011;1463;51.070;16.998;2023-04-25T15:05:32;2.75;;;1.75;;
2906;SDS011;1463;51.070;16.998;2023-04-25T15:08:01;2.40;;;1.50;;